Time;durP1;ratioP1;P1;durP2;ratioP2;P2;SDS_P1;SDS_P2;PMS_P1;PMS_P2;Temp;Humidity;BMP_temperature;BMP_pressure;BME280_temperature;BME280_humidity;BME280_pressure;Samples;Min_cycle;Max_cycle;Signal;HPM_P1;HPM_P2
2021/12/05 00:21:31;;;;;;;1878.63;315.37;;;2.10;99.90;;;;;;5145122;27;20494;-80
2021/12/05 00:24:10;;;;;;;1936.43;367.97;;;2.10;99.90;;;;;;5144606;27;20458;-81
2021/12/05 00:26:40;;;;;;;1999.90;350.93;;;2.10;99.90;;;;;;5144884;27;20483;-81
2021/12/05 00:30:08;;;;;;;;;;;;;;;;;;;;;
2021/12/05 00:39:43;;;;;;;1152.93;175.77;;;2.10;99.90;;;;;;5003572;28;20439;-80
2021/12/05 00:42:44;;;;;;;1822.87;297.80;;;2.10;99.90;;;;;;5103603;28;20435;-80
2021/12/05 00:48:18;;;;;;;1999.90;578.90;;;2.00;99.90;;;;;;5102140;28;20863;-80
2021/12/05 00:56:39;;;;;;;1999.90;671.13;;;2.10;99.90;;;;;;5099996;28;20530;-80
2021/12/05 01:07:52;;;;;;;1999.90;759.40;;;2.10;99.90;;;;;;5143061;27;20475;-80
2021/12/05 01:10:36;;;;;;;1999.90;920.77;;;2.10;99.90;;;;;;5142932;27;20453;-80
2021/12/05 01:13:29;;;;;;;1999.90;321.77;;;2.10;99.90;;;;;;5143310;27;20470;-80
2021/12/05 01:16:03;;;;;;;1395.23;197.20;;;2.10;99.90;;;;;;5142831;27;20459;-80
2021/12/05 01:18:37;;;;;;;1999.90;478.93;;;2.10;99.90;;;;;;5143581;27;20508;-80
2021/12/05 01:21:14;;;;;;;1999.90;456.30;;;2.10;99.90;;;;;;5143638;27;20476;-80
2021/12/05 01:23:53;;;;;;;1999.90;447.97;;;2.10;99.90;;;;;;5142080;27;20523;-80
2021/12/05 01:26:37;;;;;;;1621.37;267.07;;;2.10;99.90;;;;;;5142137;27;20435;-80
2021/12/05 01:32:02;;;;;;;1999.90;579.63;;;2.10;99.90;;;;;;5158678;27;20467;-80
2021/12/05 01:37:30;;;;;;;1999.90;332.00;;;2.10;99.90;;;;;;5142581;27;20446;-80
2021/12/05 01:40:28;;;;;;;1999.90;441.00;;;2.10;99.90;;;;;;5142923;27;20447;-80
2021/12/05 01:51:44;;;;;;;1970.37;290.30;;;2.00;99.90;;;;;;5143613;27;20441;-80
2021/12/05 01:54:29;;;;;;;1710.60;263.33;;;2.10;99.90;;;;;;5142493;27;20816;-80
2021/12/05 01:57:31;;;;;;;1999.90;763.70;;;2.10;99.90;;;;;;5142978;27;20477;-79
2021/12/05 02:09:06;;;;;;;1514.37;244.40;;;2.00;99.90;;;;;;5146802;27;20470;-79
2021/12/05 02:31:54;;;;;;;1999.90;319.30;;;2.00;99.90;;;;;;5122662;27;20454;-79
2021/12/05 02:34:43;;;;;;;1558.87;211.97;;;2.00;99.90;;;;;;5147523;27;20466;-79
2021/12/05 02:38:02;;;;;;;1999.90;346.37;;;2.00;99.90;;;;;;5165650;27;20429;-80
2021/12/05 02:40:49;;;;;;;1748.70;310.27;;;2.00;99.90;;;;;;5146915;27;20444;-79
2021/12/05 02:43:26;;;;;;;1999.90;335.23;;;2.00;99.90;;;;;;5146901;27;20466;-80
2021/12/05 02:45:58;;;;;;;1999.90;292.00;;;2.00;99.90;;;;;;5155780;27;20452;-79
2021/12/05 02:48:31;;;;;;;1999.90;403.37;;;2.00;99.90;;;;;;5154321;27;20467;-79
2021/12/05 02:51:04;;;;;;;1999.90;564.03;;;2.00;99.90;;;;;;5155160;27;20446;-79
2021/12/05 02:53:38;;;;;;;1999.90;363.93;;;2.00;99.90;;;;;;5171794;27;20461;-80
2021/12/05 02:56:10;;;;;;;1999.90;375.00;;;2.00;99.90;;;;;;5150601;27;20459;-79
2021/12/05 02:58:48;;;;;;;1999.90;678.90;;;2.00;99.90;;;;;;5150619;27;20449;-79
2021/12/05 03:01:28;;;;;;;1999.90;727.90;;;2.00;99.90;;;;;;5151865;27;20459;-79
2021/12/05 03:03:58;;;;;;;1999.90;380.97;;;2.10;99.90;;;;;;5152969;27;20480;-79
2021/12/05 03:06:31;;;;;;;1999.90;373.23;;;2.10;99.90;;;;;;5154107;27;20477;-79
2021/12/05 03:09:04;;;;;;;1903.07;378.13;;;2.10;99.90;;;;;;5151715;27;20438;-79
2021/12/05 03:11:33;;;;;;;1883.73;337.67;;;2.10;99.90;;;;;;5150395;27;20446;-79
2021/12/05 03:14:04;;;;;;;1999.90;622.77;;;2.10;99.90;;;;;;5149853;27;20464;-79
2021/12/05 03:16:35;;;;;;;1999.90;564.17;;;2.10;99.90;;;;;;5146740;27;20481;-79
2021/12/05 03:19:05;;;;;;;1999.90;459.40;;;2.10;99.90;;;;;;5145733;27;20473;-79
2021/12/05 03:21:34;;;;;;;1908.00;376.07;;;2.10;99.90;;;;;;5145930;27;20457;-79
2021/12/05 03:24:08;;;;;;;1999.90;562.00;;;2.10;99.90;;;;;;5146047;27;20489;-79
2021/12/05 03:26:38;;;;;;;1999.90;429.80;;;2.10;99.90;;;;;;5146464;27;20477;-79
2021/12/05 03:29:21;;;;;;;1999.90;686.23;;;2.10;99.90;;;;;;5145971;27;20525;-79
2021/12/05 03:31:51;;;;;;;1999.90;684.93;;;2.10;99.90;;;;;;5145501;27;20853;-81
2021/12/05 03:34:24;;;;;;;1999.90;531.93;;;2.20;99.90;;;;;;5145330;27;20464;-79
2021/12/05 03:36:55;;;;;;;1999.90;522.07;;;2.10;99.90;;;;;;5145369;27;20450;-79
2021/12/05 03:39:29;;;;;;;1999.90;398.47;;;2.20;99.90;;;;;;5144759;27;20442;-79
2021/12/05 03:42:00;;;;;;;1999.90;607.43;;;2.20;99.90;;;;;;5144624;27;20465;-81
2021/12/05 03:44:32;;;;;;;1999.90;449.33;;;2.20;99.90;;;;;;5145017;27;20874;-79
2021/12/05 03:47:05;;;;;;;1999.90;549.30;;;2.20;99.90;;;;;;5144966;27;20449;-78
2021/12/05 03:49:37;;;;;;;1999.90;588.87;;;2.20;99.90;;;;;;5144357;27;20778;-79
2021/12/05 03:52:12;;;;;;;1999.90;358.57;;;2.20;99.90;;;;;;5145923;27;20434;-78
2021/12/05 03:54:45;;;;;;;1999.90;526.47;;;2.20;99.90;;;;;;5144734;27;20868;-79
2021/12/05 03:57:15;;;;;;;1999.90;515.60;;;2.20;99.90;;;;;;5145081;27;20446;-79
2021/12/05 03:59:44;;;;;;;1999.90;445.13;;;2.30;99.90;;;;;;5144865;27;20452;-79
2021/12/05 04:02:13;;;;;;;1999.90;517.80;;;2.20;99.90;;;;;;5144095;27;20495;-79
2021/12/05 04:04:42;;;;;;;1999.90;477.00;;;2.20;99.90;;;;;;5144222;27;20437;-79
2021/12/05 04:07:15;;;;;;;1999.90;703.87;;;2.20;99.90;;;;;;5144510;27;20431;-79
2021/12/05 04:09:46;;;;;;;1999.90;469.13;;;2.20;99.90;;;;;;5144274;27;20434;-79
2021/12/05 04:12:17;;;;;;;1999.90;468.33;;;2.10;99.90;;;;;;5144049;27;20437;-79
2021/12/05 04:14:54;;;;;;;1999.90;455.47;;;2.10;99.90;;;;;;5144999;27;20506;-79
2021/12/05 04:17:27;;;;;;;1999.90;371.50;;;2.10;99.90;;;;;;5144408;27;20450;-79
2021/12/05 04:19:57;;;;;;;1999.90;426.23;;;2.10;99.90;;;;;;5144704;27;20431;-79
2021/12/05 04:22:26;;;;;;;1999.90;632.40;;;2.10;99.90;;;;;;5144801;27;20474;-79
2021/12/05 04:24:57;;;;;;;1999.90;399.87;;;2.20;99.90;;;;;;5144369;27;20959;-78
2021/12/05 04:27:29;;;;;;;1999.90;584.23;;;2.20;99.90;;;;;;5143052;27;20491;-79
2021/12/05 04:29:57;;;;;;;1999.90;542.93;;;2.20;99.90;;;;;;5142921;27;20463;-79
2021/12/05 04:32:27;;;;;;;1999.90;562.87;;;2.20;99.90;;;;;;5143209;27;20478;-79
2021/12/05 04:34:55;;;;;;;1999.90;420.23;;;2.20;99.90;;;;;;5143703;27;20471;-79
2021/12/05 04:37:26;;;;;;;1999.90;287.67;;;2.20;99.90;;;;;;5143132;27;20441;-79
2021/12/05 04:39:57;;;;;;;1999.90;425.80;;;2.20;99.90;;;;;;5143422;27;20808;-79
2021/12/05 04:42:25;;;;;;;1999.90;590.07;;;2.30;99.90;;;;;;5143070;27;20478;-78
2021/12/05 04:44:54;;;;;;;1999.90;432.70;;;2.30;99.90;;;;;;5143114;27;20461;-79
2021/12/05 04:47:22;;;;;;;1999.90;403.97;;;2.20;99.90;;;;;;5143278;27;20886;-79
2021/12/05 04:49:51;;;;;;;1999.90;401.17;;;2.30;99.90;;;;;;5143269;27;20486;-79
2021/12/05 04:52:19;;;;;;;1999.90;315.33;;;2.30;99.90;;;;;;5143441;27;20442;-79
2021/12/05 04:54:48;;;;;;;1999.90;370.93;;;2.30;99.90;;;;;;5143037;27;20435;-79
2021/12/05 04:57:34;;;;;;;1999.90;510.13;;;2.30;99.90;;;;;;5161833;27;20424;-79
2021/12/05 05:00:05;;;;;;;1999.90;488.13;;;2.30;99.90;;;;;;5143308;27;20446;-79
2021/12/05 05:02:34;;;;;;;1999.90;868.53;;;2.30;99.90;;;;;;5142897;27;20497;-79
2021/12/05 05:05:03;;;;;;;1999.90;475.40;;;2.30;99.90;;;;;;5142632;27;20465;-78
2021/12/05 05:07:31;;;;;;;1999.90;446.93;;;2.30;99.90;;;;;;5160933;27;20440;-79
2021/12/05 05:10:08;;;;;;;1999.90;812.40;;;2.30;99.90;;;;;;5142942;27;20553;-79
2021/12/05 05:12:37;;;;;;;1999.90;388.97;;;2.30;99.90;;;;;;5143450;27;20466;-79
2021/12/05 05:15:09;;;;;;;1999.90;480.33;;;2.30;99.90;;;;;;5142431;27;20447;-79
2021/12/05 05:17:39;;;;;;;1999.90;375.53;;;2.30;99.90;;;;;;5161663;27;20425;-79
2021/12/05 05:20:19;;;;;;;1999.90;274.57;;;2.40;99.90;;;;;;5161479;27;20430;-79
2021/12/05 05:23:02;;;;;;;1999.90;490.37;;;2.40;99.90;;;;;;5142910;27;20478;-79
2021/12/05 05:39:53;;;;;;;1999.90;367.60;;;2.50;99.90;;;;;;5134464;27;20538;-79
2021/12/05 05:45:27;;;;;;;1999.90;999.90;;;2.50;99.90;;;;;;5122656;27;20466;-79
2021/12/05 05:48:03;;;;;;;1999.90;747.97;;;2.60;99.90;;;;;;5142241;27;20434;-79
2021/12/05 05:50:34;;;;;;;1999.90;262.17;;;2.60;99.90;;;;;;5142738;27;20429;-79
2021/12/05 05:53:02;;;;;;;786.20;198.43;;;2.60;99.90;;;;;;5142106;27;20998;-79
2021/12/05 05:55:31;;;;;;;1999.90;999.90;;;2.70;99.90;;;;;;5141709;27;20468;-78
2021/12/05 05:58:05;;;;;;;1999.90;243.43;;;2.60;99.90;;;;;;5142811;27;20960;-80
2021/12/05 06:00:50;;;;;;;1999.90;716.53;;;2.70;99.90;;;;;;5143647;27;20449;-79
2021/12/05 06:03:24;;;;;;;1999.90;739.30;;;2.70;99.90;;;;;;5143522;27;20470;-79
2021/12/05 06:05:55;;;;;;;1999.90;999.90;;;2.70;99.90;;;;;;5142991;27;20441;-79
2021/12/05 06:08:26;;;;;;;179.47;167.13;;;2.70;99.90;;;;;;5142914;27;20812;-78
2021/12/05 06:10:57;;;;;;;701.37;185.93;;;2.70;99.90;;;;;;5142272;27;20438;-79
2021/12/05 06:13:25;;;;;;;1999.90;999.90;;;2.80;99.90;;;;;;5141347;27;20880;-78
2021/12/05 06:15:55;;;;;;;595.23;154.40;;;2.80;99.90;;;;;;5141790;27;20509;-78
2021/12/05 06:18:29;;;;;;;1999.90;999.90;;;2.80;99.90;;;;;;5140925;27;20438;-78
2021/12/05 06:21:00;;;;;;;1999.90;999.90;;;2.80;99.90;;;;;;5141114;27;20447;-78
2021/12/05 06:23:30;;;;;;;1933.13;712.87;;;2.80;99.90;;;;;;5158956;27;20463;-78
2021/12/05 06:25:59;;;;;;;1999.90;745.93;;;2.80;99.90;;;;;;5140853;27;20483;-78
2021/12/05 06:28:33;;;;;;;1999.90;999.90;;;2.80;99.90;;;;;;5140087;27;20448;-78
2021/12/05 06:31:12;;;;;;;319.37;205.97;;;2.80;99.90;;;;;;5140215;27;20463;-78
2021/12/05 06:36:57;;;;;;;1999.90;999.90;;;2.80;99.90;;;;;;5139775;27;20426;-78
2021/12/05 06:39:39;;;;;;;867.33;204.70;;;2.80;99.90;;;;;;5158716;27;20473;-78
2021/12/05 06:47:37;;;;;;;1999.90;708.63;;;2.80;99.90;;;;;;5139368;27;20433;-78
2021/12/05 06:50:06;;;;;;;1999.90;999.90;;;2.80;99.90;;;;;;5140979;27;20485;-78
2021/12/05 06:52:42;;;;;;;1999.90;999.90;;;2.80;99.90;;;;;;5158521;27;20982;-78
2021/12/05 06:55:10;;;;;;;1779.43;732.47;;;2.80;99.90;;;;;;5143074;27;20451;-78
2021/12/05 06:57:39;;;;;;;1999.90;999.90;;;2.80;99.90;;;;;;5145383;27;20529;-79
2021/12/05 07:00:11;;;;;;;1999.90;999.90;;;2.80;99.90;;;;;;5144743;27;20441;-78
2021/12/05 07:02:41;;;;;;;169.73;157.50;;;2.80;99.90;;;;;;5163717;27;20979;-78
2021/12/05 07:07:57;;;;;;;642.20;201.17;;;2.80;99.90;;;;;;5141527;27;20449;-78
2021/12/05 07:10:27;;;;;;;1999.90;999.90;;;2.90;99.90;;;;;;5145049;27;20499;-78
2021/12/05 07:15:50;;;;;;;1862.77;470.67;;;2.90;99.90;;;;;;5107439;27;20450;-79
2021/12/05 07:21:23;;;;;;;387.83;106.40;;;2.80;99.90;;;;;;5164553;27;20425;-79
2021/12/05 07:24:03;;;;;;;470.43;140.80;;;2.80;99.90;;;;;;5145452;27;20820;-79
2021/12/05 07:26:50;;;;;;;1999.90;999.90;;;2.80;99.90;;;;;;5146232;27;20434;-79
2021/12/05 07:40:27;;;;;;;1999.90;516.33;;;2.90;99.90;;;;;;5145756;27;20445;-79
2021/12/05 07:42:59;;;;;;;1999.90;999.90;;;2.90;99.90;;;;;;5144840;27;20458;-79
2021/12/05 07:45:34;;;;;;;1999.90;999.90;;;2.90;99.90;;;;;;5145252;27;20450;-79
2021/12/05 07:48:10;;;;;;;1999.90;999.90;;;2.90;99.90;;;;;;5145546;27;20436;-79
2021/12/05 07:50:51;;;;;;;1999.90;999.90;;;2.90;99.90;;;;;;5164643;27;20937;-79
2021/12/05 07:53:30;;;;;;;134.07;124.87;;;2.90;99.90;;;;;;5164286;27;20466;-79
2021/12/05 07:56:08;;;;;;;1999.90;999.90;;;2.90;99.90;;;;;;5147319;27;20479;-79
2021/12/05 07:59:07;;;;;;;1999.90;999.90;;;2.90;99.90;;;;;;5164333;27;20440;-79
2021/12/05 08:15:44;;;;;;;1999.90;999.90;;;3.00;99.90;;;;;;5157496;27;20538;-79
2021/12/05 08:18:16;;;;;;;1999.90;999.90;;;3.00;99.90;;;;;;5154118;27;20441;-80
2021/12/05 08:20:50;;;;;;;1999.90;999.90;;;3.00;99.90;;;;;;5152250;27;21050;-79
2021/12/05 08:23:23;;;;;;;1999.90;999.90;;;3.00;99.90;;;;;;5150571;27;20470;-80
2021/12/05 08:26:00;;;;;;;195.67;179.67;;;3.00;99.90;;;;;;5149030;27;20449;-79
2021/12/05 08:28:45;;;;;;;1999.90;999.90;;;3.00;99.90;;;;;;5146236;27;20465;-79
2021/12/05 08:31:31;;;;;;;1563.17;455.93;;;3.00;99.90;;;;;;5146377;27;20530;-79
2021/12/05 08:34:08;;;;;;;1999.90;999.90;;;3.00;99.90;;;;;;5145153;27;20466;-79
2021/12/05 08:40:15;;;;;;;1999.90;999.90;;;3.00;99.90;;;;;;5103893;27;20443;-79
2021/12/05 09:27:52;;;;;;;1794.17;727.70;;;3.20;99.90;;;;;;5132374;27;20826;-80
2021/12/05 09:30:42;;;;;;;1999.90;999.90;;;3.20;99.90;;;;;;5143720;27;20443;-80
2021/12/05 10:07:38;;;;;;;1999.90;999.90;;;3.40;99.90;;;;;;5108178;28;20433;-80
2021/12/05 10:13:17;;;;;;;1999.90;999.90;;;3.40;99.90;;;;;;5101998;28;20464;-80
2021/12/05 10:16:10;;;;;;;1999.90;999.90;;;3.40;99.90;;;;;;5040668;28;20416;-80
2021/12/05 10:36:09;;;;;;;64.80;59.13;;;3.40;99.90;;;;;;5133778;27;20454;-79
2021/12/05 10:38:44;;;;;;;208.83;77.23;;;3.40;99.90;;;;;;5133526;27;20480;-79
2021/12/05 10:41:46;;;;;;;258.70;68.13;;;3.40;99.90;;;;;;5134761;27;20543;-79
2021/12/05 10:44:18;;;;;;;1999.90;999.90;;;3.40;99.90;;;;;;5133872;27;20542;-79
2021/12/05 10:46:50;;;;;;;1999.90;999.90;;;3.50;99.90;;;;;;5065299;28;20464;-79
2021/12/05 10:49:21;;;;;;;156.93;61.17;;;3.40;99.90;;;;;;5064390;28;20422;-79
2021/12/05 10:51:55;;;;;;;135.70;125.37;;;3.50;99.90;;;;;;5132971;27;20448;-81
2021/12/05 10:54:26;;;;;;;1999.90;372.17;;;3.50;99.90;;;;;;5133708;27;20469;-79
2021/12/05 10:56:57;;;;;;;146.60;65.60;;;3.50;99.90;;;;;;5132201;27;20473;-79
2021/12/05 10:59:36;;;;;;;136.70;56.07;;;3.50;99.90;;;;;;5133567;27;20438;-79
2021/12/05 11:02:07;;;;;;;165.77;69.60;;;3.50;99.90;;;;;;5133825;27;20797;-80
2021/12/05 11:04:42;;;;;;;1999.90;768.80;;;3.50;99.90;;;;;;5133796;27;20492;-80
2021/12/05 11:07:17;;;;;;;1986.50;333.70;;;3.50;99.90;;;;;;5132993;27;20468;-80
2021/12/05 11:09:50;;;;;;;81.50;73.70;;;3.50;99.90;;;;;;5135755;27;20452;-80
2021/12/05 11:12:20;;;;;;;279.33;70.90;;;3.50;99.90;;;;;;5132045;27;20442;-79
2021/12/05 11:14:52;;;;;;;223.03;77.53;;;3.50;99.90;;;;;;5063056;28;20428;-80
2021/12/05 11:17:38;;;;;;;106.93;51.93;;;3.60;99.90;;;;;;5129895;27;20450;-79
2021/12/05 11:28:55;;;;;;;1999.90;999.90;;;3.70;99.90;;;;;;4894799;29;20467;-79
2021/12/05 11:31:25;;;;;;;1999.90;999.90;;;3.80;99.90;;;;;;5022842;28;20464;-79
2021/12/05 11:33:55;;;;;;;169.47;64.23;;;3.80;99.90;;;;;;5103769;28;20474;-78
2021/12/05 11:36:25;;;;;;;188.53;59.77;;;3.80;99.90;;;;;;5103279;28;20500;-78
2021/12/05 11:38:57;;;;;;;1520.27;362.47;;;3.80;99.90;;;;;;5103036;28;20449;-78
2021/12/05 11:41:26;;;;;;;1868.40;444.20;;;3.80;99.90;;;;;;5104382;28;20503;-78
2021/12/05 11:43:58;;;;;;;182.63;67.67;;;3.80;99.90;;;;;;5035101;28;20458;-78
2021/12/05 11:46:29;;;;;;;146.37;61.63;;;3.80;99.90;;;;;;5102818;28;20467;-80
2021/12/05 11:48:59;;;;;;;261.53;74.23;;;3.80;99.90;;;;;;5034164;28;20427;-78
2021/12/05 11:51:31;;;;;;;243.83;82.33;;;3.80;99.90;;;;;;5102252;28;20553;-78
2021/12/05 11:54:01;;;;;;;1950.63;504.60;;;3.80;99.90;;;;;;5102049;28;21045;-78
2021/12/05 11:56:48;;;;;;;93.17;58.03;;;3.80;99.90;;;;;;5102182;28;20440;-78
2021/12/05 11:59:21;;;;;;;1978.90;555.33;;;3.80;99.90;;;;;;5033253;28;20528;-78
2021/12/05 12:01:54;;;;;;;1914.43;427.80;;;3.80;99.90;;;;;;5101377;28;20477;-78
2021/12/05 12:04:26;;;;;;;176.77;72.60;;;3.80;99.90;;;;;;5101089;28;20569;-78
2021/12/05 12:07:12;;;;;;;193.67;67.70;;;3.80;99.90;;;;;;5032592;28;20455;-77
2021/12/05 12:09:41;;;;;;;171.77;70.50;;;3.80;99.90;;;;;;5100984;28;20490;-78
2021/12/05 12:12:10;;;;;;;230.87;68.43;;;3.80;99.90;;;;;;5100617;28;20457;-77
2021/12/05 12:14:40;;;;;;;132.97;67.87;;;3.80;99.90;;;;;;5100624;28;20956;-77
2021/12/05 12:17:15;;;;;;;196.03;68.50;;;3.80;99.90;;;;;;5100131;28;20451;-77
2021/12/05 12:19:45;;;;;;;129.03;62.77;;;3.80;99.90;;;;;;5100338;28;20442;-77
2021/12/05 12:22:14;;;;;;;174.57;70.63;;;3.80;99.90;;;;;;5099783;28;20454;-77
2021/12/05 12:24:42;;;;;;;211.93;67.30;;;3.80;99.90;;;;;;5032041;28;20431;-77
2021/12/05 12:27:12;;;;;;;198.40;66.50;;;3.90;99.90;;;;;;5031561;28;21007;-77
2021/12/05 12:29:42;;;;;;;178.50;63.47;;;3.90;99.90;;;;;;5100160;28;20454;-77
2021/12/05 12:32:15;;;;;;;1354.70;395.13;;;3.90;99.90;;;;;;5106061;27;20455;-77
2021/12/05 12:34:45;;;;;;;86.97;55.10;;;3.90;99.90;;;;;;5138220;27;20472;-78
2021/12/05 12:37:14;;;;;;;688.00;277.40;;;3.90;99.90;;;;;;5137898;27;20501;-77
2021/12/05 12:39:45;;;;;;;137.93;63.50;;;4.00;99.90;;;;;;5138175;27;20962;-77
2021/12/05 12:42:18;;;;;;;836.73;251.17;;;4.00;99.90;;;;;;5156598;27;20432;-77
2021/12/05 12:45:11;;;;;;;147.40;64.63;;;4.00;99.90;;;;;;5138045;27;20440;-77
2021/12/05 12:47:41;;;;;;;1618.97;406.37;;;4.00;99.90;;;;;;5156870;27;20426;-77
2021/12/05 12:50:27;;;;;;;222.40;71.07;;;4.10;99.90;;;;;;5156464;27;20418;-77
2021/12/05 12:53:16;;;;;;;253.93;67.70;;;4.10;99.90;;;;;;5137193;27;20518;-77
2021/12/05 12:55:51;;;;;;;146.43;66.77;;;4.10;99.90;;;;;;5138410;27;20481;-77
2021/12/05 12:58:36;;;;;;;203.57;69.23;;;4.20;99.90;;;;;;5137657;27;20438;-77
2021/12/05 13:01:29;;;;;;;221.17;79.67;;;4.20;99.90;;;;;;5137594;27;20471;-77
2021/12/05 13:04:29;;;;;;;1013.43;325.83;;;4.20;99.90;;;;;;5137788;27;20579;-77
2021/12/05 13:12:45;;;;;;;146.50;56.27;;;4.20;99.90;;;;;;5149969;27;20464;-77
2021/12/05 13:15:16;;;;;;;129.60;56.83;;;4.20;99.90;;;;;;5148588;27;20446;-77
2021/12/05 13:17:49;;;;;;;183.07;65.33;;;4.20;99.90;;;;;;5167263;27;20438;-77
2021/12/05 13:20:20;;;;;;;190.00;69.77;;;4.30;99.90;;;;;;5143235;27;20540;-77
2021/12/05 13:23:07;;;;;;;176.57;58.10;;;4.30;99.90;;;;;;5159209;27;20534;-78
2021/12/05 13:25:56;;;;;;;222.77;66.83;;;4.30;99.90;;;;;;5137078;27;20442;-77
2021/12/05 13:28:30;;;;;;;219.27;71.77;;;4.30;99.90;;;;;;5137700;27;20474;-77
2021/12/05 13:31:00;;;;;;;238.33;113.97;;;4.30;99.90;;;;;;5137184;27;20447;-78
2021/12/05 13:33:32;;;;;;;214.27;64.53;;;4.30;99.90;;;;;;5137219;27;20822;-77
2021/12/05 13:36:28;;;;;;;233.57;71.63;;;4.30;99.90;;;;;;5137791;27;20449;-77
2021/12/05 13:38:57;;;;;;;1718.87;465.03;;;4.30;99.90;;;;;;5138391;27;20452;-78
2021/12/05 13:41:27;;;;;;;1412.87;383.80;;;4.30;99.90;;;;;;5137757;27;20504;-78
2021/12/05 13:43:57;;;;;;;147.10;59.00;;;4.20;99.90;;;;;;5155950;27;20457;-78
2021/12/05 13:46:37;;;;;;;720.80;273.13;;;4.20;99.90;;;;;;5156594;27;20524;-78
2021/12/05 13:49:35;;;;;;;172.63;67.90;;;4.20;99.90;;;;;;5137341;27;20437;-78
2021/12/05 13:52:29;;;;;;;1723.40;446.13;;;4.20;99.90;;;;;;5155914;27;20540;-78
2021/12/05 13:55:31;;;;;;;1578.50;384.77;;;4.10;99.90;;;;;;5137427;27;20532;-78
2021/12/05 13:58:20;;;;;;;147.07;66.70;;;4.10;99.90;;;;;;5156096;27;20793;-78
2021/12/05 14:00:57;;;;;;;191.07;71.37;;;4.10;99.90;;;;;;5137630;27;20533;-78
2021/12/05 14:03:55;;;;;;;272.07;73.07;;;4.10;99.90;;;;;;5139506;27;20464;-78
2021/12/05 14:06:33;;;;;;;1947.50;566.40;;;4.10;99.90;;;;;;5141223;27;20458;-78
2021/12/05 14:09:06;;;;;;;70.23;64.20;;;4.10;99.90;;;;;;5142798;27;20494;-77
2021/12/05 14:11:36;;;;;;;315.00;81.10;;;4.10;99.90;;;;;;5141486;27;20493;-78
2021/12/05 14:14:05;;;;;;;228.57;64.00;;;4.00;99.90;;;;;;5141089;27;20533;-77
2021/12/05 14:16:35;;;;;;;173.43;54.57;;;4.00;99.90;;;;;;5141137;27;20445;-78
2021/12/05 14:19:05;;;;;;;1568.80;426.33;;;4.00;99.90;;;;;;5141393;27;20540;-78
2021/12/05 14:21:39;;;;;;;1943.33;480.23;;;3.90;99.90;;;;;;5141175;27;20449;-78
2021/12/05 14:24:08;;;;;;;1999.90;999.90;;;3.90;99.90;;;;;;5159362;27;20460;-77
2021/12/05 14:26:39;;;;;;;1992.13;627.40;;;3.90;99.90;;;;;;5140130;27;20597;-78
2021/12/05 14:29:10;;;;;;;65.07;58.50;;;3.90;99.90;;;;;;5140307;27;20441;-78
2021/12/05 14:31:41;;;;;;;1999.90;595.40;;;3.90;99.90;;;;;;5158723;27;20821;-78
2021/12/05 14:34:12;;;;;;;1911.20;617.67;;;3.90;99.90;;;;;;5141668;27;20468;-77
2021/12/05 14:36:46;;;;;;;1999.90;999.90;;;3.90;99.90;;;;;;5158963;27;20471;-77
2021/12/05 14:39:22;;;;;;;1814.73;278.73;;;3.80;99.90;;;;;;5140002;27;20523;-77
2021/12/05 14:41:53;;;;;;;1896.60;544.90;;;3.80;99.90;;;;;;5158492;27;20968;-78
2021/12/05 14:44:22;;;;;;;70.70;64.23;;;3.80;99.90;;;;;;5140110;27;20991;-77
2021/12/05 14:46:55;;;;;;;1999.90;623.87;;;3.80;99.90;;;;;;5139737;27;20511;-77
2021/12/05 14:49:26;;;;;;;175.27;60.40;;;3.80;99.90;;;;;;5139848;27;20473;-78
2021/12/05 14:51:56;;;;;;;185.87;78.73;;;3.70;99.90;;;;;;5139749;27;20442;-78
2021/12/05 14:54:28;;;;;;;213.60;63.87;;;3.70;99.90;;;;;;5139971;27;20471;-77
2021/12/05 14:56:58;;;;;;;155.40;63.10;;;3.70;99.90;;;;;;5139676;27;20983;-77
2021/12/05 14:59:27;;;;;;;264.57;68.83;;;3.70;99.90;;;;;;5139655;27;20536;-77
2021/12/05 15:01:57;;;;;;;63.23;56.40;;;3.70;99.90;;;;;;5139542;27;20496;-77
2021/12/05 15:04:32;;;;;;;77.80;70.77;;;3.70;99.90;;;;;;5139492;27;20572;-78
2021/12/05 15:07:02;;;;;;;75.17;68.63;;;3.70;99.90;;;;;;5139310;27;20558;-77
2021/12/05 15:09:35;;;;;;;1999.90;589.90;;;3.70;99.90;;;;;;5139448;27;20494;-78
2021/12/05 15:12:50;;;;;;;86.33;47.57;;;3.70;99.90;;;;;;5139597;27;20912;-77
2021/12/05 15:15:59;;;;;;;505.23;131.47;;;3.70;99.90;;;;;;5117949;27;20463;-77
2021/12/05 15:21:43;;;;;;;189.53;61.67;;;3.60;99.90;;;;;;4939221;23;21080;-78
2021/12/05 15:24:18;;;;;;;102.23;94.20;;;3.60;99.90;;;;;;4902573;29;20480;-76
2021/12/05 15:26:46;;;;;;;1999.90;781.77;;;3.60;99.90;;;;;;4902627;29;20484;-75
2021/12/05 15:29:15;;;;;;;1999.90;999.90;;;3.60;99.90;;;;;;4902530;29;20480;-75
2021/12/05 15:31:57;;;;;;;1999.90;999.90;;;3.60;99.90;;;;;;4902301;29;20537;-76
2021/12/05 15:34:29;;;;;;;84.87;77.67;;;3.50;99.90;;;;;;4902195;29;20473;-77
2021/12/05 15:36:59;;;;;;;1964.27;584.60;;;3.60;99.90;;;;;;4902903;29;20447;-78
2021/12/05 15:39:30;;;;;;;1989.23;572.50;;;3.60;99.90;;;;;;4902350;29;20482;-78
2021/12/05 15:41:59;;;;;;;1999.90;999.90;;;3.60;99.90;;;;;;4902422;29;20873;-78
2021/12/05 15:44:34;;;;;;;84.50;78.17;;;3.60;99.90;;;;;;4902049;29;20571;-78
2021/12/05 15:47:07;;;;;;;1999.90;999.90;;;3.60;99.90;;;;;;4901979;29;20474;-77
2021/12/05 15:49:47;;;;;;;1999.90;999.90;;;3.60;99.90;;;;;;4918946;29;20445;-78
2021/12/05 15:52:17;;;;;;;84.63;76.97;;;3.60;99.90;;;;;;4919097;29;20426;-78
2021/12/05 15:54:47;;;;;;;1999.90;999.90;;;3.50;99.90;;;;;;4901723;29;20458;-77
2021/12/05 15:57:23;;;;;;;1999.90;999.90;;;3.50;99.90;;;;;;4918784;29;20514;-76
2021/12/05 15:59:51;;;;;;;1999.90;999.90;;;3.50;99.90;;;;;;4901731;29;20487;-77
2021/12/05 16:02:20;;;;;;;1999.90;999.90;;;3.50;99.90;;;;;;4901604;29;20482;-78
2021/12/05 16:04:52;;;;;;;1999.90;999.90;;;3.50;99.90;;;;;;4901814;29;20453;-78
2021/12/05 16:07:28;;;;;;;154.87;139.67;;;3.50;99.90;;;;;;4901402;29;20476;-77
2021/12/05 16:10:12;;;;;;;1999.90;999.90;;;3.50;99.90;;;;;;4901606;29;20459;-78
2021/12/05 16:12:46;;;;;;;1999.90;999.90;;;3.50;99.90;;;;;;4901469;29;20924;-77
2021/12/05 16:15:17;;;;;;;1999.90;999.90;;;3.40;99.90;;;;;;4901556;29;20446;-77
2021/12/05 16:17:54;;;;;;;1999.90;999.90;;;3.40;99.90;;;;;;4901504;29;20441;-77
2021/12/05 16:20:27;;;;;;;1999.90;999.90;;;3.40;99.90;;;;;;4901505;29;20522;-77
2021/12/05 16:23:25;;;;;;;1983.67;541.60;;;3.50;99.90;;;;;;4901242;29;20573;-78
2021/12/05 16:26:09;;;;;;;60.05;54.83;;;3.50;99.90;;;;;;4901478;29;20466;-77
2021/12/05 16:28:42;;;;;;;143.47;49.80;;;3.50;99.90;;;;;;4901397;29;20691;-76
2021/12/05 16:31:17;;;;;;;1999.90;778.93;;;3.50;99.90;;;;;;4902793;29;20536;-79
2021/12/05 16:33:49;;;;;;;69.27;63.97;;;3.50;99.90;;;;;;4902837;29;20476;-78
2021/12/05 16:36:18;;;;;;;1999.90;999.90;;;3.50;99.90;;;;;;4902505;29;20543;-78
2021/12/05 16:38:50;;;;;;;1999.90;999.90;;;3.50;99.90;;;;;;4902547;29;20491;-78
2021/12/05 16:41:28;;;;;;;1999.90;999.90;;;3.50;99.90;;;;;;4902196;29;20455;-78
2021/12/05 16:44:05;;;;;;;1999.90;999.90;;;3.50;99.90;;;;;;4919131;29;20476;-78
2021/12/05 16:46:38;;;;;;;1999.90;999.90;;;3.40;99.90;;;;;;4918138;29;20478;-76
2021/12/05 16:49:09;;;;;;;304.97;186.40;;;3.40;99.90;;;;;;4900972;29;20504;-76
2021/12/05 16:51:45;;;;;;;1999.90;999.90;;;3.40;99.90;;;;;;4919056;29;20534;-77
2021/12/05 16:54:17;;;;;;;1999.90;999.90;;;3.40;99.90;;;;;;4902118;29;21067;-78
2021/12/05 16:56:54;;;;;;;111.73;104.10;;;3.40;99.90;;;;;;4919319;29;20516;-78
2021/12/05 16:59:26;;;;;;;1867.50;525.77;;;3.40;99.90;;;;;;4902117;29;20959;-78
2021/12/05 17:02:14;;;;;;;114.33;106.03;;;3.40;99.90;;;;;;4902040;29;20467;-78
2021/12/05 17:04:57;;;;;;;1999.90;999.90;;;3.40;99.90;;;;;;4902191;29;20934;-78
2021/12/05 17:07:46;;;;;;;126.73;118.00;;;3.40;99.90;;;;;;4901993;29;20821;-78
2021/12/05 17:10:36;;;;;;;1999.90;999.90;;;3.40;99.90;;;;;;4919139;29;20455;-78
2021/12/05 17:13:21;;;;;;;907.33;241.07;;;3.40;99.90;;;;;;4901827;29;21073;-78
2021/12/05 17:15:58;;;;;;;1999.90;738.87;;;3.30;99.90;;;;;;4902264;29;20456;-78
2021/12/05 17:18:31;;;;;;;1999.90;999.90;;;3.30;99.90;;;;;;4906965;29;20460;-78
2021/12/05 17:21:02;;;;;;;144.00;131.87;;;3.30;99.90;;;;;;4906772;29;20452;-78
2021/12/05 17:23:33;;;;;;;1999.90;999.90;;;3.30;99.90;;;;;;4912470;29;20503;-77
2021/12/05 17:26:13;;;;;;;1999.90;999.90;;;3.20;99.90;;;;;;4911884;29;20827;-78